MUCF/CFG METAR and TAF weather

Enter ICAO airport designator
Station Type Date Time Source
MUCF METAR 2019/10/23 20:59 UTC NOAA

MUCF 232059Z AUTO 22008KT 31/25 Q1013


Station Type Date Time Source
MUCF Decoded METAR 2019/10/23 20:59 UTC NOAA

Cienfuegos, Las Villas, Cuba (MUCF) 22-09N 080-24W 39M
Oct 23, 2019 - 04:59 PM EDT / 2019.10.23 2059 UTC
Wind: from the SW (220 degrees) at 9 MPH (8 KT):0
Temperature: 87 F (31 C)
Heat index: 97.5 F (36.4 C):1
Dew Point: 77 F (25 C)
Relative Humidity: 70%
Pressure (altimeter): 29.91 in. Hg (1013 hPa)
ob: MUCF 232059Z AUTO 22008KT 31/25 Q1013
cycle: 21

Station Type Date Time Source
MUCF TAF 2019/10/23 18:03 UTC NOAA

MUCF 231700Z 2318/2406 22008KT 9000 SCT020
TEMPO 2320/2324 5000 SHRA SCT018CB BKN020
BECMG 2401/2403 VRB03KT

Example: see airport list